createdAt,value
2022-10-19T00:02:12.303Z,21.17
2022-10-19T00:04:38.984Z,21.17
2022-10-19T00:07:05.571Z,21.17
2022-10-19T00:09:32.145Z,21.18
2022-10-19T00:11:58.717Z,21.16
2022-10-19T00:14:25.384Z,21.16
2022-10-19T00:16:52.329Z,21.16
2022-10-19T00:19:20.890Z,21.17
2022-10-19T00:21:47.737Z,21.15
2022-10-19T00:24:14.454Z,21.14
2022-10-19T00:26:41.137Z,21.15
2022-10-19T00:29:07.895Z,21.15
2022-10-19T00:31:34.571Z,21.14
2022-10-19T00:34:01.251Z,21.14
2022-10-19T00:36:30.472Z,21.14
2022-10-19T00:38:57.759Z,21.14
2022-10-19T00:41:25.974Z,21.14
2022-10-19T00:43:52.387Z,21.13
2022-10-19T00:46:18.945Z,21.13
2022-10-19T00:48:50.477Z,21.13
2022-10-19T00:51:17.025Z,21.11
2022-10-19T00:53:43.596Z,21.12
2022-10-19T00:56:13.035Z,21.12
2022-10-19T00:58:42.121Z,21.11
2022-10-19T01:01:09.227Z,21.11
2022-10-19T01:03:37.951Z,21.11
2022-10-19T01:06:04.768Z,21.11
2022-10-19T01:08:31.386Z,21.10
2022-10-19T01:11:39.747Z,21.09
2022-10-19T01:14:19.368Z,21.10
2022-10-19T01:17:08.075Z,21.09
2022-10-19T01:19:53.488Z,21.09
2022-10-19T01:22:20.375Z,21.09
2022-10-19T01:25:11.425Z,21.08
2022-10-19T01:27:44.554Z,21.09
2022-10-19T01:30:47.605Z,21.07
2022-10-19T01:33:26.222Z,21.08
2022-10-19T01:36:11.935Z,21.07
2022-10-19T01:38:44.835Z,21.07
2022-10-19T01:41:12.660Z,21.06
2022-10-19T01:44:19.084Z,21.05
2022-10-19T01:46:49.798Z,21.06
2022-10-19T01:49:22.147Z,21.06
2022-10-19T01:52:00.678Z,21.05
2022-10-19T01:54:30.647Z,21.05
2022-10-19T01:56:58.591Z,21.05
2022-10-19T01:59:25.192Z,21.04
2022-10-19T02:01:52.609Z,21.03
2022-10-19T02:04:20.002Z,21.04
2022-10-19T02:06:46.584Z,21.04
2022-10-19T02:09:18.247Z,21.03
2022-10-19T02:11:49.606Z,21.03
2022-10-19T02:14:18.658Z,21.02
2022-10-19T02:16:48.467Z,21.03
2022-10-19T02:19:15.091Z,21.03
2022-10-19T02:21:41.770Z,21.02
2022-10-19T02:24:08.341Z,21.03
2022-10-19T02:26:34.899Z,21.02
2022-10-19T02:29:01.537Z,21.02
2022-10-19T02:31:28.145Z,21.02
2022-10-19T02:33:54.712Z,21.00
2022-10-19T02:36:22.075Z,21.01
2022-10-19T02:38:48.658Z,21.01
2022-10-19T02:41:18.696Z,21.01
2022-10-19T02:43:51.399Z,20.99
2022-10-19T02:46:46.415Z,20.99
2022-10-19T02:49:13.016Z,20.99
2022-10-19T02:51:41.423Z,20.99
2022-10-19T02:54:08.410Z,20.99
2022-10-19T02:56:38.000Z,20.99
2022-10-19T02:59:04.660Z,20.98
2022-10-19T03:01:31.279Z,20.98
2022-10-19T03:03:57.928Z,20.97
2022-10-19T03:06:24.527Z,20.96
2022-10-19T03:08:51.107Z,20.96
2022-10-19T03:11:17.684Z,20.96
2022-10-19T03:13:44.461Z,20.96
2022-10-19T03:16:11.729Z,20.97
2022-10-19T03:18:38.296Z,20.97
2022-10-19T03:21:09.957Z,20.96
2022-10-19T03:23:36.762Z,20.95
2022-10-19T03:26:04.334Z,20.96
2022-10-19T03:28:32.338Z,20.96
2022-10-19T03:30:58.930Z,20.95
2022-10-19T03:36:18.062Z,20.94
2022-10-19T03:38:44.680Z,20.96
2022-10-19T03:41:11.371Z,20.94
2022-10-19T03:43:37.957Z,20.93
2022-10-19T03:46:04.615Z,20.93
2022-10-19T03:48:31.150Z,20.94
2022-10-19T03:51:20.160Z,20.95
2022-10-19T03:53:47.073Z,20.96
2022-10-19T03:56:15.210Z,21.00
2022-10-19T03:58:42.186Z,21.07
2022-10-19T04:01:11.079Z,21.13
2022-10-19T04:03:37.757Z,21.21
2022-10-19T04:06:05.813Z,21.30
2022-10-19T04:08:32.535Z,21.41
2022-10-19T04:11:06.416Z,21.52
2022-10-19T04:13:33.142Z,21.62
2022-10-19T04:15:59.875Z,21.75
2022-10-19T04:18:26.448Z,21.84
2022-10-19T04:21:00.351Z,21.93
2022-10-19T04:23:27.590Z,22.02
2022-10-19T04:26:00.230Z,22.07
2022-10-19T04:28:26.944Z,22.13
2022-10-19T04:30:53.535Z,22.17
2022-10-19T04:33:20.130Z,22.19
2022-10-19T04:35:46.719Z,22.22
2022-10-19T04:38:13.438Z,22.23
2022-10-19T04:40:39.995Z,22.24
2022-10-19T04:43:06.551Z,22.24
2022-10-19T04:45:35.398Z,22.25
2022-10-19T04:48:02.323Z,22.24
2022-10-19T04:50:28.911Z,22.24
2022-10-19T04:52:55.462Z,22.22
2022-10-19T04:55:22.005Z,22.22
2022-10-19T04:57:48.557Z,22.20
2022-10-19T05:00:15.481Z,22.17
2022-10-19T05:02:45.551Z,22.16
2022-10-19T05:05:13.250Z,22.15
2022-10-19T05:07:39.955Z,22.13
2022-10-19T05:10:07.244Z,22.11
2022-10-19T05:12:35.343Z,22.09
2022-10-19T05:15:02.131Z,22.07
2022-10-19T05:17:32.332Z,22.05
2022-10-19T05:19:59.134Z,22.04
2022-10-19T05:22:28.387Z,22.03
2022-10-19T05:24:58.050Z,22.03
2022-10-19T05:27:24.943Z,22.00
2022-10-19T05:29:51.504Z,21.93
2022-10-19T05:32:18.207Z,21.87
2022-10-19T05:34:44.746Z,21.82
2022-10-19T05:37:11.347Z,21.79
2022-10-19T05:39:37.951Z,21.75
2022-10-19T05:42:04.516Z,21.71
2022-10-19T05:44:31.141Z,21.67
2022-10-19T05:46:57.725Z,21.63
2022-10-19T05:49:24.365Z,21.60
2022-10-19T05:51:51.046Z,21.58
2022-10-19T05:54:17.625Z,21.56
2022-10-19T05:56:44.556Z,21.55
2022-10-19T05:59:16.476Z,21.54
2022-10-19T06:01:43.087Z,21.54
2022-10-19T06:04:10.842Z,21.54
2022-10-19T06:06:37.466Z,21.53
2022-10-19T06:09:04.085Z,21.51
2022-10-19T06:11:33.894Z,21.47
2022-10-19T06:14:02.365Z,21.47
2022-10-19T06:16:29.514Z,21.46
2022-10-19T06:18:56.141Z,21.42
2022-10-19T06:21:24.236Z,21.39
2022-10-19T06:23:51.861Z,21.38
2022-10-19T06:26:18.602Z,21.36
2022-10-19T06:28:45.258Z,21.35
2022-10-19T06:31:12.756Z,21.33
2022-10-19T06:33:39.755Z,21.31
2022-10-19T06:36:19.784Z,21.32
2022-10-19T06:38:46.583Z,21.31
2022-10-19T06:41:13.337Z,21.35
2022-10-19T06:43:40.339Z,21.36
2022-10-19T06:46:12.087Z,21.39
2022-10-19T06:48:40.643Z,21.39
2022-10-19T06:51:07.788Z,21.41
2022-10-19T06:53:35.485Z,21.42
2022-10-19T06:56:02.800Z,21.44
2022-10-19T06:58:29.444Z,21.45
2022-10-19T07:00:57.329Z,21.49
2022-10-19T07:03:24.944Z,21.46
2022-10-19T07:05:55.564Z,21.46
2022-10-19T07:08:25.221Z,21.48
2022-10-19T07:10:56.755Z,21.50
2022-10-19T07:13:23.529Z,21.46
2022-10-19T07:15:50.349Z,21.45
2022-10-19T07:18:17.002Z,21.44
2022-10-19T07:20:43.595Z,21.44
2022-10-19T07:23:10.140Z,21.43
2022-10-19T07:25:36.692Z,21.43
2022-10-19T07:28:03.430Z,21.45
2022-10-19T07:30:29.991Z,21.48
2022-10-19T07:32:56.735Z,21.50
2022-10-19T07:35:25.255Z,21.50
2022-10-19T07:37:51.913Z,21.52
2022-10-19T07:40:21.384Z,21.53
2022-10-19T07:42:47.950Z,21.57
2022-10-19T07:45:14.571Z,21.60
2022-10-19T07:47:41.167Z,21.61
2022-10-19T07:50:08.172Z,21.62
2022-10-19T07:52:36.851Z,21.63
2022-10-19T07:55:03.958Z,21.67
2022-10-19T07:57:30.563Z,21.69
2022-10-19T07:59:57.233Z,21.71
2022-10-19T08:02:30.781Z,21.75
2022-10-19T08:05:10.519Z,21.76
2022-10-19T08:07:38.267Z,21.77
2022-10-19T08:10:05.399Z,21.79
2022-10-19T08:12:32.317Z,21.81
2022-10-19T08:14:59.055Z,21.83
2022-10-19T08:17:25.683Z,21.86
2022-10-19T08:19:52.269Z,21.89
2022-10-19T08:22:18.892Z,21.88
2022-10-19T08:24:45.467Z,21.88
2022-10-19T08:27:12.259Z,21.90
2022-10-19T08:29:38.839Z,21.91
2022-10-19T08:32:05.495Z,21.89
2022-10-19T08:34:33.543Z,21.92
2022-10-19T08:37:06.766Z,21.95
2022-10-19T08:39:41.559Z,21.96
2022-10-19T08:42:23.498Z,21.95
2022-10-19T08:44:59.962Z,21.97
2022-10-19T08:47:50.663Z,21.97
2022-10-19T08:50:41.076Z,22.01
2022-10-19T08:53:11.673Z,22.04
2022-10-19T08:55:41.096Z,22.04
2022-10-19T08:58:20.550Z,22.07
2022-10-19T09:00:54.865Z,22.07
2022-10-19T09:03:55.903Z,22.06
2022-10-19T09:06:23.235Z,22.04
2022-10-19T09:08:53.809Z,22.04
2022-10-19T09:11:37.505Z,22.04
2022-10-19T09:14:36.422Z,22.03
2022-10-19T09:17:04.528Z,22.07
2022-10-19T09:19:32.078Z,22.08
2022-10-19T09:22:02.386Z,22.08
2022-10-19T09:24:37.768Z,22.12
2022-10-19T09:27:06.399Z,22.13
2022-10-19T09:29:48.100Z,22.12
2022-10-19T09:32:17.311Z,22.12
2022-10-19T09:34:45.882Z,22.09
2022-10-19T09:37:21.222Z,22.06
2022-10-19T09:39:55.717Z,22.07
2022-10-19T09:42:33.880Z,22.05
2022-10-19T09:45:12.463Z,22.06
2022-10-19T09:47:42.733Z,22.05
2022-10-19T09:50:09.284Z,22.03
2022-10-19T09:52:39.372Z,21.98
2022-10-19T09:55:14.943Z,21.98
2022-10-19T09:57:57.679Z,21.96
2022-10-19T10:00:25.710Z,21.96
2022-10-19T10:02:55.565Z,21.95
2022-10-19T10:05:32.494Z,21.93
2022-10-19T10:07:59.067Z,21.94
2022-10-19T10:10:37.118Z,21.94
2022-10-19T10:13:03.741Z,21.92
2022-10-19T10:15:44.006Z,21.90
2022-10-19T10:18:18.833Z,21.92
2022-10-19T10:20:58.832Z,21.93
2022-10-19T10:23:27.098Z,21.95
2022-10-19T10:25:57.376Z,21.95
2022-10-19T10:28:25.552Z,21.97
2022-10-19T10:31:05.312Z,22.01
2022-10-19T10:33:44.370Z,21.99
2022-10-19T10:36:12.075Z,21.97
2022-10-19T10:38:46.205Z,21.97
2022-10-19T10:41:14.836Z,21.96
2022-10-19T10:44:00.990Z,21.95
2022-10-19T10:46:46.283Z,21.95
2022-10-19T10:49:49.680Z,21.95
2022-10-19T10:52:16.495Z,21.95
2022-10-19T10:55:09.241Z,21.95
2022-10-19T10:57:38.435Z,21.97
2022-10-19T11:00:11.344Z,21.95
2022-10-19T11:03:12.214Z,21.95
2022-10-19T11:05:46.003Z,21.94
2022-10-19T11:08:12.449Z,21.94
2022-10-19T11:11:02.058Z,21.92
2022-10-19T11:13:39.296Z,21.93
2022-10-19T11:16:19.371Z,21.96
2022-10-19T11:18:51.999Z,21.95
2022-10-19T11:21:21.411Z,21.92
2022-10-19T11:24:14.449Z,21.90
2022-10-19T11:26:50.831Z,21.89
2022-10-19T11:29:24.227Z,21.86
2022-10-19T11:31:56.998Z,21.85
2022-10-19T11:34:37.011Z,21.85
2022-10-19T11:37:12.298Z,21.85
2022-10-19T11:39:57.703Z,21.85
2022-10-19T11:42:36.239Z,21.85
2022-10-19T11:45:22.240Z,21.83
2022-10-19T11:48:15.041Z,21.83
2022-10-19T11:50:54.140Z,21.82
2022-10-19T11:53:31.910Z,21.82
2022-10-19T11:56:07.341Z,21.80
2022-10-19T11:58:45.575Z,21.79
2022-10-19T12:01:17.414Z,21.77
2022-10-19T12:03:53.521Z,21.77
2022-10-19T12:06:29.078Z,21.76
2022-10-19T12:09:14.348Z,21.76
2022-10-19T12:11:59.034Z,21.75
2022-10-19T12:14:27.083Z,21.74
2022-10-19T12:16:56.798Z,21.73
2022-10-19T12:19:29.130Z,21.73
2022-10-19T12:22:00.090Z,21.73
2022-10-19T12:24:27.154Z,21.71
2022-10-19T12:26:54.224Z,21.69
2022-10-19T12:29:28.188Z,21.70
2022-10-19T12:31:55.296Z,21.67
2022-10-19T12:34:33.813Z,21.67
2022-10-19T12:37:20.486Z,21.66
2022-10-19T12:40:31.631Z,21.64
2022-10-19T12:43:12.371Z,21.64
2022-10-19T12:45:39.779Z,21.63
2022-10-19T12:48:10.922Z,21.63
2022-10-19T12:50:49.606Z,21.63
2022-10-19T12:53:30.918Z,21.62
2022-10-19T12:56:00.500Z,21.61
2022-10-19T12:58:27.051Z,21.60
2022-10-19T13:01:00.736Z,21.59
2022-10-19T13:03:38.259Z,21.58
2022-10-19T13:06:13.556Z,21.58
2022-10-19T13:08:46.738Z,21.58
2022-10-19T13:11:15.255Z,21.58
2022-10-19T13:13:53.239Z,21.58
2022-10-19T13:16:28.855Z,21.58
2022-10-19T13:19:14.435Z,21.59
2022-10-19T13:22:07.404Z,21.58
2022-10-19T13:24:35.576Z,21.59
2022-10-19T13:27:02.035Z,21.58
2022-10-19T13:29:48.740Z,21.59
2022-10-19T13:32:36.479Z,21.59
2022-10-19T13:35:22.310Z,21.59
2022-10-19T13:38:31.082Z,21.59
2022-10-19T13:41:25.562Z,21.60
2022-10-19T13:43:54.618Z,21.60
2022-10-19T13:46:30.378Z,21.60
2022-10-19T13:49:27.904Z,21.61
2022-10-19T13:52:05.739Z,21.60
2022-10-19T13:55:02.972Z,21.60
2022-10-19T13:58:02.675Z,21.60
2022-10-19T14:00:47.899Z,21.59
2022-10-19T14:03:37.640Z,21.59
2022-10-19T14:06:28.514Z,21.60
2022-10-19T14:09:16.938Z,21.60
2022-10-19T14:11:44.489Z,21.62
2022-10-19T14:14:10.901Z,21.62
2022-10-19T14:16:56.092Z,21.62
2022-10-19T14:19:32.875Z,21.62
2022-10-19T14:22:00.912Z,21.64
2022-10-19T14:24:29.688Z,21.62
2022-10-19T14:26:57.119Z,21.63
2022-10-19T14:29:23.715Z,21.63
2022-10-19T14:31:50.344Z,21.63
2022-10-19T14:34:17.052Z,21.64
2022-10-19T14:36:45.296Z,21.64
2022-10-19T14:39:35.259Z,21.64
2022-10-19T14:42:05.863Z,21.65
2022-10-19T14:44:42.583Z,21.64
2022-10-19T14:47:18.010Z,21.64
2022-10-19T14:49:44.786Z,21.65
2022-10-19T14:52:12.908Z,21.66
2022-10-19T14:54:41.729Z,21.65
2022-10-19T14:57:17.519Z,21.65
2022-10-19T14:59:50.259Z,21.64
2022-10-19T15:02:25.771Z,21.65
2022-10-19T15:04:53.325Z,21.65
2022-10-19T15:07:30.447Z,21.65
2022-10-19T15:09:58.422Z,21.66
2022-10-19T15:12:39.088Z,21.66
2022-10-19T15:15:25.200Z,21.67
2022-10-19T15:18:01.950Z,21.67
2022-10-19T15:20:43.869Z,21.66
2022-10-19T15:23:43.735Z,21.66
2022-10-19T15:26:26.413Z,21.66
2022-10-19T15:28:53.865Z,21.67
2022-10-19T15:31:24.224Z,21.68
2022-10-19T15:33:58.545Z,21.69
2022-10-19T15:36:25.129Z,21.67
2022-10-19T15:39:25.058Z,21.68
2022-10-19T15:42:36.177Z,21.69
2022-10-19T15:45:04.378Z,21.69
2022-10-19T15:47:31.326Z,21.68
2022-10-19T15:50:00.022Z,21.68
2022-10-19T15:52:32.291Z,21.69
2022-10-19T15:54:59.352Z,21.69
2022-10-19T15:57:36.851Z,21.70
2022-10-19T16:00:14.878Z,21.70
2022-10-19T16:02:41.554Z,21.69
2022-10-19T16:05:08.218Z,21.69
2022-10-19T16:07:36.739Z,21.70
2022-10-19T16:10:03.555Z,21.70
2022-10-19T16:12:30.367Z,21.69
2022-10-19T16:14:56.899Z,21.69
2022-10-19T16:17:23.461Z,21.68
2022-10-19T16:19:53.557Z,21.70
2022-10-19T16:22:20.254Z,21.70
2022-10-19T16:24:46.823Z,21.69
2022-10-19T16:27:15.244Z,21.70
2022-10-19T16:29:43.113Z,21.69
2022-10-19T16:32:09.682Z,21.69
2022-10-19T16:34:36.319Z,21.68
2022-10-19T16:37:05.949Z,21.68
2022-10-19T16:39:33.793Z,21.68
2022-10-19T16:42:00.470Z,21.67
2022-10-19T16:44:27.078Z,21.68
2022-10-19T16:46:56.184Z,21.68
2022-10-19T16:49:24.308Z,21.67
2022-10-19T16:51:53.254Z,21.66
2022-10-19T16:54:23.138Z,21.67
2022-10-19T16:56:49.845Z,21.65
2022-10-19T16:59:17.862Z,21.66
2022-10-19T17:01:44.954Z,21.65
2022-10-19T17:04:12.197Z,21.65
2022-10-19T17:06:38.874Z,21.65
2022-10-19T17:11:52.349Z,21.64
2022-10-19T17:14:18.987Z,21.63
2022-10-19T17:16:45.630Z,21.63
2022-10-19T17:19:12.527Z,21.62
2022-10-19T17:21:39.332Z,21.64
2022-10-19T17:24:07.587Z,21.64
2022-10-19T17:26:39.253Z,21.63
2022-10-19T17:29:05.998Z,21.62
2022-10-19T17:31:32.590Z,21.62
2022-10-19T17:34:00.665Z,21.62
2022-10-19T17:36:28.760Z,21.62
2022-10-19T17:38:58.967Z,21.61
2022-10-19T17:41:25.719Z,21.62
2022-10-19T17:43:52.674Z,21.61
2022-10-19T17:46:24.064Z,21.60
2022-10-19T17:48:50.652Z,21.60
2022-10-19T17:51:19.016Z,21.60
2022-10-19T17:53:46.530Z,21.59
2022-10-19T17:56:15.000Z,21.60
2022-10-19T17:58:41.620Z,21.59
2022-10-19T18:01:08.244Z,21.59
2022-10-19T18:03:35.047Z,21.58
2022-10-19T18:06:18.658Z,21.59
2022-10-19T18:08:47.390Z,21.58
2022-10-19T18:11:25.098Z,21.57
2022-10-19T18:13:52.152Z,21.57
2022-10-19T18:16:24.314Z,21.57
2022-10-19T18:18:51.877Z,21.57
2022-10-19T18:21:20.556Z,21.57
2022-10-19T18:23:47.211Z,21.56
2022-10-19T18:26:19.606Z,21.56
2022-10-19T18:28:46.482Z,21.55
2022-10-19T18:31:14.627Z,21.55
2022-10-19T18:33:41.270Z,21.55
2022-10-19T18:36:08.680Z,21.54
2022-10-19T18:38:35.235Z,21.53
2022-10-19T18:41:02.890Z,21.52
2022-10-19T18:43:29.356Z,21.52
2022-10-19T18:45:56.064Z,21.51
2022-10-19T18:48:22.453Z,21.51
2022-10-19T18:50:48.978Z,21.50
2022-10-19T18:53:15.409Z,21.51
2022-10-19T18:55:41.985Z,21.50
2022-10-19T18:58:08.664Z,21.49
2022-10-19T19:00:35.208Z,21.49
2022-10-19T19:03:01.589Z,21.48
2022-10-19T19:05:27.983Z,21.47
2022-10-19T19:07:56.027Z,21.47
2022-10-19T19:10:22.419Z,21.47
2022-10-19T19:12:49.251Z,21.47
2022-10-19T19:15:15.636Z,21.46
2022-10-19T19:17:42.018Z,21.46
2022-10-19T19:20:08.561Z,21.45
2022-10-19T19:22:35.157Z,21.45
2022-10-19T19:25:01.802Z,21.45
2022-10-19T19:27:31.620Z,21.44
2022-10-19T19:29:58.614Z,21.44
2022-10-19T19:32:25.025Z,21.43
2022-10-19T19:34:54.700Z,21.44
2022-10-19T19:37:21.390Z,21.42
2022-10-19T19:39:47.778Z,21.42
2022-10-19T19:42:14.194Z,21.41
2022-10-19T19:44:40.596Z,21.42
2022-10-19T19:47:08.228Z,21.42
2022-10-19T19:49:34.648Z,21.41
2022-10-19T19:52:01.056Z,21.41
2022-10-19T19:54:27.503Z,21.42
2022-10-19T19:56:53.993Z,21.39
2022-10-19T19:59:20.446Z,21.40
2022-10-19T20:01:47.000Z,21.39
2022-10-19T20:04:13.476Z,21.40
2022-10-19T20:06:40.142Z,21.40
2022-10-19T20:09:06.824Z,21.40
2022-10-19T20:11:33.988Z,21.39
2022-10-19T20:14:02.459Z,21.39
2022-10-19T20:16:29.842Z,21.39
2022-10-19T20:18:58.629Z,21.38
2022-10-19T20:21:25.787Z,21.38
2022-10-19T20:23:52.286Z,21.38
2022-10-19T20:26:19.306Z,21.38
2022-10-19T20:28:45.743Z,21.37
2022-10-19T20:31:12.364Z,21.38
2022-10-19T20:33:39.134Z,21.37
2022-10-19T20:36:06.659Z,21.37
2022-10-19T20:38:33.620Z,21.35
2022-10-19T20:41:04.230Z,21.36
2022-10-19T20:43:33.508Z,21.35
2022-10-19T20:46:06.431Z,21.35
2022-10-19T20:48:32.864Z,21.34
2022-10-19T20:51:12.353Z,21.33
2022-10-19T20:53:38.879Z,21.34
2022-10-19T20:56:05.951Z,21.33
2022-10-19T20:58:32.623Z,21.33
2022-10-19T21:01:04.540Z,21.31
2022-10-19T21:03:30.925Z,21.31
2022-10-19T21:05:57.315Z,21.31
2022-10-19T21:08:23.731Z,21.30
2022-10-19T21:10:50.136Z,21.30
2022-10-19T21:13:16.519Z,21.29
2022-10-19T21:15:42.923Z,21.29
2022-10-19T21:18:09.295Z,21.28
2022-10-19T21:20:35.696Z,21.29
2022-10-19T21:23:02.091Z,21.29
2022-10-19T21:25:30.408Z,21.28
2022-10-19T21:27:56.819Z,21.28
2022-10-19T21:30:23.221Z,21.28
2022-10-19T21:32:49.607Z,21.27
2022-10-19T21:35:16.030Z,21.26
2022-10-19T21:37:42.411Z,21.26
2022-10-19T21:40:09.104Z,21.26
2022-10-19T21:42:35.510Z,21.25
2022-10-19T21:45:25.144Z,21.26
2022-10-19T21:47:48.332Z,21.25
2022-10-19T21:50:17.357Z,21.23
2022-10-19T21:52:43.731Z,21.24
2022-10-19T21:55:10.213Z,21.23
2022-10-19T21:57:37.037Z,21.23
2022-10-19T22:00:04.092Z,21.22
2022-10-19T22:02:30.490Z,21.21
2022-10-19T22:04:58.035Z,21.21
2022-10-19T22:07:24.441Z,21.21
2022-10-19T22:09:50.971Z,21.20
2022-10-19T22:12:17.364Z,21.19
2022-10-19T22:14:45.382Z,21.19
2022-10-19T22:17:11.807Z,21.18
2022-10-19T22:19:38.264Z,21.18
2022-10-19T22:22:04.639Z,21.18
2022-10-19T22:24:31.035Z,21.18
2022-10-19T22:26:57.438Z,21.18
2022-10-19T22:29:23.832Z,21.16
2022-10-19T22:31:50.219Z,21.17
2022-10-19T22:34:16.941Z,21.17
2022-10-19T22:36:43.675Z,21.17
2022-10-19T22:39:10.184Z,21.15
2022-10-19T22:42:14.349Z,21.14
2022-10-19T22:44:40.721Z,21.14
2022-10-19T22:47:07.138Z,21.14
2022-10-19T22:49:33.549Z,21.13
2022-10-19T22:52:02.353Z,21.12
2022-10-19T22:54:28.813Z,21.12
2022-10-19T22:56:55.193Z,21.12
2022-10-19T22:59:21.688Z,21.10
2022-10-19T23:01:48.149Z,21.10
2022-10-19T23:04:14.629Z,21.10
2022-10-19T23:06:41.009Z,21.10
2022-10-19T23:09:07.383Z,21.09
2022-10-19T23:11:33.779Z,21.09
2022-10-19T23:14:00.231Z,21.07
2022-10-19T23:18:57.998Z,21.07
2022-10-19T23:21:24.389Z,21.06
2022-10-19T23:23:50.773Z,21.06
2022-10-19T23:26:17.939Z,21.05
2022-10-19T23:28:44.602Z,21.04
2022-10-19T23:31:12.035Z,21.05
2022-10-19T23:33:38.464Z,21.04
2022-10-19T23:36:16.538Z,21.03
2022-10-19T23:38:43.393Z,21.03
2022-10-19T23:41:09.856Z,21.03
2022-10-19T23:46:07.558Z,21.00
2022-10-19T23:48:34.563Z,21.01
2022-10-19T23:51:01.923Z,21.00
2022-10-19T23:53:28.349Z,20.98
2022-10-19T23:55:58.435Z,20.97
2022-10-19T23:58:24.823Z,20.97
